Time;durP1;ratioP1;P1;durP2;ratioP2;P2;SDS_P1;SDS_P2;PMS_P1;PMS_P2;Temp;Humidity;BMP_temperature;BMP_pressure;BME280_temperature;BME280_humidity;BME280_pressure;Samples;Min_cycle;Max_cycle;Signal;HPM_P1;HPM_P2
2023/12/15 00:00:53;;;;;;;36.72;16.45;;;6.50;90.50;;;;;;9174904;19;21019;-69
2023/12/15 00:04:01;;;;;;;31.98;16.17;;;6.50;90.60;;;;;;9176003;19;20020;-74
2023/12/15 00:07:09;;;;;;;28.73;13.38;;;6.50;90.70;;;;;;9175657;19;20014;-73
2023/12/15 00:10:15;;;;;;;31.10;14.93;;;6.50;90.70;;;;;;9176157;19;20372;-73
2023/12/15 00:13:22;;;;;;;30.85;13.85;;;6.50;90.80;;;;;;9174471;19;20022;-71
2023/12/15 00:16:28;;;;;;;30.17;15.30;;;6.60;90.90;;;;;;9176650;19;20010;-72
2023/12/15 00:19:38;;;;;;;29.35;13.65;;;6.60;91.10;;;;;;9176793;19;20024;-72
2023/12/15 00:22:43;;;;;;;32.90;13.48;;;6.60;91.30;;;;;;9173134;19;20375;-71
2023/12/15 00:25:51;;;;;;;38.55;15.27;;;6.70;91.80;;;;;;9176253;19;20018;-71
2023/12/15 00:28:57;;;;;;;33.45;13.93;;;6.70;92.40;;;;;;9171505;19;20029;-71
2023/12/15 00:32:04;;;;;;;32.30;13.10;;;6.70;92.10;;;;;;9174941;19;20029;-72
2023/12/15 00:35:13;;;;;;;33.03;15.07;;;6.70;92.00;;;;;;9173718;19;20037;-71
2023/12/15 00:38:20;;;;;;;32.95;14.32;;;6.80;92.40;;;;;;9175260;19;20356;-71
2023/12/15 00:41:26;;;;;;;27.92;14.25;;;6.80;92.30;;;;;;9173773;19;20026;-71
2023/12/15 00:44:34;;;;;;;28.67;12.98;;;6.80;91.90;;;;;;9173595;19;20015;-73
2023/12/15 00:47:41;;;;;;;27.75;13.57;;;6.70;91.90;;;;;;9173165;19;20019;-71
2023/12/15 00:50:51;;;;;;;33.35;15.45;;;6.80;91.80;;;;;;9181250;19;20022;-71
2023/12/15 00:53:57;;;;;;;28.92;14.00;;;6.90;91.80;;;;;;9181750;19;20021;-71
2023/12/15 00:57:05;;;;;;;30.02;13.13;;;6.90;91.90;;;;;;9183290;19;20025;-71
2023/12/15 01:00:12;;;;;;;23.90;12.88;;;6.80;91.90;;;;;;9184159;19;20018;-71
2023/12/15 01:03:19;;;;;;;24.08;13.07;;;6.90;92.20;;;;;;9180079;19;20471;-71
2023/12/15 01:06:28;;;;;;;26.80;13.60;;;6.90;92.20;;;;;;9182776;19;20018;-71
2023/12/15 01:09:37;;;;;;;26.10;13.18;;;6.90;92.30;;;;;;9183246;19;20022;-71
2023/12/15 01:12:43;;;;;;;25.85;12.70;;;6.90;92.20;;;;;;9183166;19;20015;-72
2023/12/15 01:15:50;;;;;;;33.97;13.02;;;6.80;92.10;;;;;;9182894;19;20010;-71
2023/12/15 01:18:56;;;;;;;30.58;13.20;;;7.00;92.30;;;;;;9181065;19;20090;-71
2023/12/15 01:22:12;;;;;;;33.30;13.02;;;6.90;92.20;;;;;;9181532;19;20486;-72
2023/12/15 01:25:17;;;;;;;29.45;13.30;;;6.90;92.40;;;;;;9182375;19;20028;-71
2023/12/15 01:28:26;;;;;;;27.35;13.30;;;6.90;92.30;;;;;;9178568;19;20019;-71
2023/12/15 01:31:32;;;;;;;23.27;12.45;;;6.90;92.40;;;;;;9182184;19;20050;-71
2023/12/15 01:34:39;;;;;;;33.15;13.80;;;6.90;92.30;;;;;;9181175;19;20011;-71
2023/12/15 01:37:47;;;;;;;26.90;13.32;;;7.00;92.40;;;;;;9181480;19;20018;-73
2023/12/15 01:40:58;;;;;;;30.52;13.68;;;7.00;92.50;;;;;;9182467;19;20014;-72
2023/12/15 01:44:04;;;;;;;28.27;13.27;;;7.10;92.40;;;;;;9178863;19;20014;-72
2023/12/15 01:47:17;;;;;;;29.23;13.45;;;7.00;92.50;;;;;;9179776;19;20028;-74
2023/12/15 01:50:23;;;;;;;26.60;12.35;;;7.40;92.50;;;;;;9179508;19;20014;-73
2023/12/15 01:53:35;;;;;;;33.05;13.43;;;7.10;92.90;;;;;;9179046;19;20011;-72
2023/12/15 01:56:41;;;;;;;34.50;13.35;;;7.00;92.50;;;;;;9181002;19;20015;-72
2023/12/15 01:59:50;;;;;;;29.90;12.80;;;7.10;92.50;;;;;;9180008;19;20026;-73
2023/12/15 02:02:56;;;;;;;25.30;12.80;;;7.10;92.40;;;;;;9179700;19;20081;-72
2023/12/15 02:06:04;;;;;;;31.42;13.45;;;7.10;92.70;;;;;;9178429;19;20018;-72
2023/12/15 02:09:13;;;;;;;28.20;13.23;;;7.10;92.80;;;;;;9178782;19;20047;-72
2023/12/15 02:12:21;;;;;;;27.15;12.52;;;7.10;92.70;;;;;;9180257;19;20029;-73
2023/12/15 02:15:27;;;;;;;28.67;14.35;;;7.20;92.80;;;;;;9180450;19;20398;-72
2023/12/15 02:18:34;;;;;;;28.27;13.35;;;7.10;93.20;;;;;;9179756;19;20341;-74
2023/12/15 02:21:49;;;;;;;28.83;13.40;;;7.10;93.20;;;;;;9180240;19;20564;-72
2023/12/15 02:24:59;;;;;;;29.38;13.43;;;7.20;93.20;;;;;;9180308;19;20015;-72
2023/12/15 02:28:06;;;;;;;33.15;14.18;;;7.20;93.40;;;;;;9176018;19;20014;-73
2023/12/15 02:31:14;;;;;;;31.33;13.05;;;7.20;94.70;;;;;;9174177;19;20463;-74
2023/12/15 02:34:20;;;;;;;31.13;14.32;;;7.20;94.10;;;;;;9177916;19;20020;-71
2023/12/15 02:37:27;;;;;;;33.95;13.75;;;7.30;96.50;;;;;;9179314;19;20011;-74
2023/12/15 02:40:36;;;;;;;32.47;13.85;;;7.30;95.70;;;;;;9179460;19;20531;-76
2023/12/15 02:43:43;;;;;;;36.60;15.60;;;7.20;95.80;;;;;;9177811;19;20011;-74
2023/12/15 02:46:49;;;;;;;33.78;15.60;;;7.30;93.40;;;;;;9176988;19;20094;-75
2023/12/15 02:49:57;;;;;;;33.58;15.68;;;7.10;90.70;;;;;;9178843;19;20011;-74
2023/12/15 02:53:02;;;;;;;29.63;14.80;;;7.10;91.00;;;;;;9176752;19;20472;-76
2023/12/15 02:56:13;;;;;;;34.10;16.00;;;7.20;91.10;;;;;;9179065;19;20014;-75
2023/12/15 02:59:18;;;;;;;41.97;15.95;;;7.20;90.90;;;;;;9176826;19;20460;-76
2023/12/15 03:02:26;;;;;;;31.77;15.65;;;7.20;90.80;;;;;;9177589;19;20018;-74
2023/12/15 03:05:31;;;;;;;39.67;17.05;;;7.30;90.90;;;;;;9177174;19;20031;-77
2023/12/15 03:08:40;;;;;;;43.22;16.05;;;7.20;90.80;;;;;;9176388;19;20052;-76
2023/12/15 03:11:48;;;;;;;39.92;16.65;;;7.20;90.90;;;;;;9176864;19;20022;-75
2023/12/15 03:14:56;;;;;;;47.22;17.27;;;7.20;90.90;;;;;;9178187;19;20029;-76
2023/12/15 03:18:02;;;;;;;42.97;18.00;;;7.30;91.00;;;;;;9177096;19;20118;-75
2023/12/15 03:21:10;;;;;;;39.95;17.60;;;7.30;91.50;;;;;;9177662;19;20018;-75
2023/12/15 03:24:15;;;;;;;39.42;17.13;;;7.40;91.60;;;;;;9176474;19;20056;-75
2023/12/15 03:27:25;;;;;;;49.28;17.52;;;7.60;91.90;;;;;;9173977;19;20030;-75
2023/12/15 03:30:33;;;;;;;43.28;19.90;;;7.50;92.00;;;;;;9176547;19;20006;-75
2023/12/15 03:33:41;;;;;;;61.65;19.00;;;7.50;91.90;;;;;;9175836;19;20350;-75
2023/12/15 03:36:46;;;;;;;46.42;19.60;;;7.50;92.10;;;;;;9175659;19;20011;-75
2023/12/15 03:39:54;;;;;;;49.58;19.88;;;7.50;92.00;;;;;;9175873;19;20003;-75
2023/12/15 03:43:02;;;;;;;50.60;21.27;;;7.60;92.10;;;;;;9175233;19;20485;-77
2023/12/15 03:46:09;;;;;;;45.13;19.40;;;7.60;92.20;;;;;;9174948;19;20018;-73
2023/12/15 03:49:15;;;;;;;50.17;20.95;;;7.70;92.20;;;;;;9176840;19;20695;-73
2023/12/15 03:52:23;;;;;;;61.78;21.55;;;7.60;92.30;;;;;;9174407;19;20022;-72
2023/12/15 03:55:28;;;;;;;57.95;21.70;;;7.70;92.50;;;;;;9175148;19;20017;-72
2023/12/15 03:58:39;;;;;;;57.33;21.42;;;7.70;92.60;;;;;;9176971;19;20006;-71
2023/12/15 04:01:44;;;;;;;56.20;21.52;;;7.60;92.70;;;;;;9175743;19;20048;-71
2023/12/15 04:04:52;;;;;;;56.22;22.23;;;7.70;92.90;;;;;;9174454;19;20021;-71
2023/12/15 04:07:57;;;;;;;53.55;22.35;;;7.70;93.00;;;;;;9174665;19;20031;-71
2023/12/15 04:11:06;;;;;;;59.58;23.08;;;7.80;93.40;;;;;;9176179;19;20015;-71
2023/12/15 04:14:15;;;;;;;50.65;22.13;;;7.70;93.70;;;;;;9176362;19;20349;-71
2023/12/15 04:17:23;;;;;;;51.17;21.92;;;7.80;94.70;;;;;;9174404;19;20015;-71
2023/12/15 04:20:29;;;;;;;58.47;22.27;;;;;;;;;;9175000;19;20022;-74
2023/12/15 04:23:36;;;;;;;53.33;21.92;;;7.70;96.90;;;;;;9176981;19;20006;-73
2023/12/15 04:26:42;;;;;;;54.35;22.45;;;7.90;93.40;;;;;;9181936;19;20018;-71
2023/12/15 04:29:52;;;;;;;56.97;22.85;;;7.90;93.60;;;;;;9186333;19;20011;-72
2023/12/15 04:33:09;;;;;;;57.63;22.30;;;7.90;93.50;;;;;;9184461;19;20019;-73
2023/12/15 04:36:20;;;;;;;57.85;23.25;;;7.90;93.50;;;;;;9182072;19;20027;-72
2023/12/15 04:39:26;;;;;;;58.10;21.77;;;8.00;93.40;;;;;;9180032;19;20025;-73
2023/12/15 04:42:34;;;;;;;57.58;22.67;;;8.00;93.40;;;;;;9183317;19;20489;-71
2023/12/15 04:45:42;;;;;;;59.35;23.77;;;8.00;93.40;;;;;;9181632;19;20152;-73
2023/12/15 04:48:49;;;;;;;53.92;22.52;;;8.00;93.50;;;;;;9184861;19;20018;-71
2023/12/15 04:51:55;;;;;;;66.38;23.92;;;8.00;93.50;;;;;;9182603;19;20688;-71
2023/12/15 04:55:02;;;;;;;56.38;23.23;;;8.10;93.60;;;;;;9183182;19;20492;-70
2023/12/15 04:58:08;;;;;;;61.00;23.38;;;8.10;93.60;;;;;;9181766;19;20010;-73
2023/12/15 05:01:18;;;;;;;59.65;23.92;;;8.10;93.30;;;;;;9183843;19;20022;-70
2023/12/15 05:04:24;;;;;;;68.60;24.35;;;8.10;93.50;;;;;;9181507;19;20023;-73
2023/12/15 05:07:31;;;;;;;64.65;22.73;;;8.10;93.80;;;;;;9183189;19;20025;-70
2023/12/15 05:10:37;;;;;;;60.30;23.40;;;8.20;93.60;;;;;;9183477;19;20014;-71
2023/12/15 05:13:45;;;;;;;63.22;23.30;;;8.10;93.70;;;;;;9182513;19;20014;-71
2023/12/15 05:16:53;;;;;;;69.35;23.85;;;8.20;93.60;;;;;;9183022;19;20030;-71
2023/12/15 05:20:02;;;;;;;57.22;23.30;;;8.20;93.60;;;;;;9183330;19;20025;-71
2023/12/15 05:23:08;;;;;;;77.95;26.55;;;8.20;93.70;;;;;;9180233;19;20023;-73
2023/12/15 05:26:16;;;;;;;53.53;22.48;;;8.20;94.10;;;;;;9178759;19;20010;-72
2023/12/15 05:29:21;;;;;;;69.28;24.48;;;8.30;94.10;;;;;;9179217;19;20010;-72
2023/12/15 05:32:31;;;;;;;75.70;25.88;;;8.30;94.10;;;;;;9181987;19;20003;-73
2023/12/15 05:35:38;;;;;;;71.38;24.58;;;8.20;94.30;;;;;;9177567;19;20025;-73
2023/12/15 05:38:46;;;;;;;65.43;24.55;;;8.30;94.10;;;;;;9182551;19;20014;-71
2023/12/15 05:41:51;;;;;;;67.63;25.23;;;8.30;94.30;;;;;;9182051;19;20015;-71
2023/12/15 05:44:58;;;;;;;69.30;24.60;;;8.30;94.50;;;;;;9179806;19;20025;-71
2023/12/15 05:48:07;;;;;;;78.97;24.85;;;8.30;94.80;;;;;;9178619;19;20017;-72
2023/12/15 05:51:15;;;;;;;71.78;25.60;;;8.30;95.00;;;;;;9180324;19;20029;-74
2023/12/15 05:54:20;;;;;;;88.13;24.55;;;8.30;94.90;;;;;;9180915;19;20019;-73
2023/12/15 05:57:28;;;;;;;69.75;24.80;;;8.30;95.00;;;;;;9181228;19;20026;-72
2023/12/15 06:00:33;;;;;;;73.30;25.25;;;8.40;96.50;;;;;;9181305;19;20010;-72
2023/12/15 06:03:43;;;;;;;83.60;26.30;;;8.40;96.70;;;;;;9181378;19;20026;-74
2023/12/15 06:06:50;;;;;;;72.40;25.38;;;8.40;96.10;;;;;;9179581;19;20022;-72
2023/12/15 06:09:57;;;;;;;79.35;25.55;;;8.40;97.50;;;;;;9181589;19;20037;-72
2023/12/15 06:13:02;;;;;;;76.75;26.20;;;8.40;94.70;;;;;;9178978;19;20010;-71
2023/12/15 06:16:10;;;;;;;73.07;24.90;;;8.40;94.50;;;;;;9179251;19;20026;-72
2023/12/15 06:19:19;;;;;;;71.30;25.15;;;8.30;94.10;;;;;;9179074;19;20375;-72
2023/12/15 06:22:26;;;;;;;71.60;26.30;;;8.50;94.20;;;;;;9179813;19;20389;-74
2023/12/15 06:25:33;;;;;;;69.95;26.30;;;8.40;94.00;;;;;;9173753;19;20018;-73
2023/12/15 06:28:41;;;;;;;64.85;24.52;;;8.50;93.90;;;;;;9174719;19;20018;-73
2023/12/15 06:31:48;;;;;;;79.90;26.80;;;8.60;94.00;;;;;;9174657;19;20374;-71
2023/12/15 06:34:58;;;;;;;68.45;24.70;;;8.50;93.90;;;;;;9176285;19;20690;-73
2023/12/15 06:38:03;;;;;;;69.75;23.85;;;8.50;94.10;;;;;;9178577;19;20006;-72
2023/12/15 06:41:12;;;;;;;74.32;24.20;;;8.50;94.20;;;;;;9179953;19;20420;-72
2023/12/15 06:44:17;;;;;;;76.50;24.50;;;8.50;94.40;;;;;;9175668;19;20352;-72
2023/12/15 06:47:25;;;;;;;71.85;24.45;;;8.50;94.50;;;;;;9173313;19;20014;-73
2023/12/15 06:50:33;;;;;;;62.60;23.17;;;8.90;94.80;;;;;;9177189;19;20026;-73
2023/12/15 06:53:41;;;;;;;58.83;23.40;;;8.50;94.20;;;;;;9177131;19;20018;-72
2023/12/15 06:56:46;;;;;;;69.80;24.17;;;8.60;94.00;;;;;;9177565;19;20018;-72
2023/12/15 06:59:54;;;;;;;57.65;22.40;;;8.60;93.80;;;;;;9177704;19;20014;-72
2023/12/15 07:02:59;;;;;;;62.28;22.77;;;8.60;93.90;;;;;;9178640;19;20010;-72
2023/12/15 07:06:10;;;;;;;61.92;23.73;;;8.60;93.90;;;;;;9177143;19;20010;-72
2023/12/15 07:09:15;;;;;;;62.13;23.35;;;8.60;94.00;;;;;;9175775;19;20015;-72
2023/12/15 07:12:25;;;;;;;58.65;21.50;;;8.60;94.10;;;;;;9177194;19;20011;-71
2023/12/15 07:15:31;;;;;;;60.25;22.42;;;8.80;94.20;;;;;;9178652;19;20022;-72
2023/12/15 07:18:39;;;;;;;59.60;22.17;;;8.60;94.30;;;;;;9175446;19;20015;-73
2023/12/15 07:21:47;;;;;;;58.67;21.73;;;8.70;94.20;;;;;;9177723;19;20023;-73
2023/12/15 07:24:55;;;;;;;58.97;22.15;;;8.60;94.30;;;;;;9175215;19;20015;-74
2023/12/15 07:28:00;;;;;;;56.40;22.13;;;8.60;94.70;;;;;;9172233;19;20026;-74
2023/12/15 07:31:08;;;;;;;55.15;23.13;;;8.70;97.00;;;;;;9175025;19;20006;-72
2023/12/15 07:34:16;;;;;;;66.75;23.48;;;8.50;95.80;;;;;;9176295;19;20047;-73
2023/12/15 07:37:27;;;;;;;56.13;22.13;;;8.70;96.50;;;;;;9177398;19;20028;-72
2023/12/15 07:40:32;;;;;;;54.30;22.05;;;8.60;95.10;;;;;;9176749;19;20483;-71
2023/12/15 07:43:40;;;;;;;53.10;22.30;;;8.60;94.60;;;;;;9177077;19;20026;-72
2023/12/15 07:46:47;;;;;;;56.83;21.38;;;8.70;94.30;;;;;;9175143;19;20021;-72
2023/12/15 07:49:54;;;;;;;57.67;22.63;;;8.60;94.40;;;;;;9175285;19;20746;-72
2023/12/15 07:53:02;;;;;;;49.40;19.80;;;8.50;94.30;;;;;;9174160;19;20026;-72
2023/12/15 07:56:11;;;;;;;56.70;21.40;;;8.50;94.60;;;;;;9175671;19;20019;-71
2023/12/15 07:59:16;;;;;;;52.15;20.95;;;8.50;94.30;;;;;;9183517;19;20010;-72
2023/12/15 08:02:25;;;;;;;60.90;22.33;;;8.50;94.30;;;;;;9184904;19;20018;-70
2023/12/15 08:05:33;;;;;;;48.58;20.52;;;8.50;94.10;;;;;;9185176;19;20011;-72
2023/12/15 08:08:45;;;;;;;56.22;20.63;;;8.60;94.20;;;;;;9186537;19;20051;-72
2023/12/15 08:11:51;;;;;;;56.53;22.13;;;8.40;94.20;;;;;;9185500;19;20023;-73
2023/12/15 08:14:58;;;;;;;51.60;21.85;;;8.50;94.20;;;;;;9183780;19;20011;-72
2023/12/15 08:18:04;;;;;;;66.53;21.52;;;8.50;94.40;;;;;;9186383;19;20017;-71
2023/12/15 08:21:13;;;;;;;61.70;23.40;;;8.50;94.40;;;;;;9183804;19;20015;-73
2023/12/15 08:24:21;;;;;;;63.03;23.15;;;8.50;94.50;;;;;;9182184;19;20018;-71
2023/12/15 08:27:31;;;;;;;51.20;20.77;;;8.60;94.20;;;;;;9178860;19;20015;-72
2023/12/15 08:30:45;;;;;;;59.20;21.27;;;8.50;94.10;;;;;;9185094;19;20077;-72
2023/12/15 08:33:54;;;;;;;59.63;23.08;;;8.50;94.20;;;;;;9182851;19;20013;-73
2023/12/15 08:37:01;;;;;;;78.15;23.17;;;8.50;94.40;;;;;;9183724;19;20061;-74
2023/12/15 08:40:15;;;;;;;58.35;21.02;;;8.50;94.20;;;;;;9184604;19;20604;-72
2023/12/15 08:43:23;;;;;;;59.88;21.67;;;8.50;94.40;;;;;;9182838;19;20018;-72
2023/12/15 08:46:35;;;;;;;64.80;22.88;;;8.50;94.50;;;;;;9181680;19;20018;-71
2023/12/15 08:49:41;;;;;;;67.13;22.70;;;8.60;94.60;;;;;;9181528;19;20026;-72
2023/12/15 08:52:49;;;;;;;58.53;22.88;;;8.60;94.60;;;;;;9180887;19;20014;-72
2023/12/15 08:55:57;;;;;;;56.70;22.77;;;8.60;94.90;;;;;;9183294;19;20074;-71
2023/12/15 08:59:04;;;;;;;60.47;20.65;;;8.70;95.20;;;;;;9181991;19;20017;-72
2023/12/15 09:02:11;;;;;;;64.13;20.77;;;8.60;93.90;;;;;;9170848;19;20019;-73
2023/12/15 09:05:19;;;;;;;52.67;21.92;;;8.70;93.90;;;;;;9180977;19;20018;-74
2023/12/15 09:08:28;;;;;;;60.88;21.27;;;8.70;93.80;;;;;;9178549;19;20760;-74
2023/12/15 09:11:38;;;;;;;51.55;20.15;;;8.70;93.80;;;;;;9179839;19;20018;-73
2023/12/15 09:14:44;;;;;;;59.03;21.42;;;8.60;93.90;;;;;;9183387;19;20333;-73
2023/12/15 09:17:52;;;;;;;55.80;22.85;;;8.70;93.90;;;;;;9182253;19;20018;-74
2023/12/15 09:20:57;;;;;;;59.20;20.63;;;8.70;93.90;;;;;;9182147;19;20393;-73
2023/12/15 09:24:05;;;;;;;46.83;20.55;;;8.80;93.80;;;;;;9181500;19;20014;-74
2023/12/15 09:27:17;;;;;;;47.80;20.80;;;8.80;93.80;;;;;;9179355;19;20114;-73
2023/12/15 09:30:24;;;;;;;60.85;21.08;;;8.80;93.80;;;;;;9182680;19;20346;-73
2023/12/15 09:33:30;;;;;;;48.17;19.83;;;8.90;93.90;;;;;;9182363;19;20015;-73
2023/12/15 09:36:37;;;;;;;47.08;19.60;;;8.90;93.90;;;;;;9181578;19;20015;-73
2023/12/15 09:39:42;;;;;;;55.50;21.13;;;9.00;94.00;;;;;;9180491;19;20481;-72
2023/12/15 09:42:53;;;;;;;54.38;19.88;;;9.00;93.90;;;;;;9182361;19;20010;-74
2023/12/15 09:46:01;;;;;;;55.90;20.70;;;9.00;94.10;;;;;;9181209;19;20077;-74
2023/12/15 09:49:08;;;;;;;61.40;20.08;;;9.00;94.00;;;;;;9181414;19;20010;-74
2023/12/15 09:52:16;;;;;;;52.40;19.25;;;9.10;93.90;;;;;;9181475;19;20034;-74
2023/12/15 09:55:26;;;;;;;48.97;20.52;;;9.10;94.00;;;;;;9181882;19;20029;-74
2023/12/15 09:58:34;;;;;;;50.95;18.90;;;9.10;94.00;;;;;;9180565;19;20014;-74
2023/12/15 10:01:42;;;;;;;55.78;19.20;;;9.20;94.00;;;;;;9181458;19;20014;-73
2023/12/15 10:04:48;;;;;;;50.00;18.95;;;9.20;94.20;;;;;;9177329;19;20538;-75
2023/12/15 10:07:56;;;;;;;61.67;19.48;;;9.30;94.30;;;;;;9178897;19;20018;-75
2023/12/15 10:11:01;;;;;;;55.72;18.90;;;9.20;94.50;;;;;;9172847;19;20132;-74
2023/12/15 10:14:14;;;;;;;57.17;18.02;;;9.30;94.80;;;;;;9172224;19;20025;-74
2023/12/15 10:17:19;;;;;;;57.85;19.80;;;9.30;96.30;;;;;;9179808;19;20018;-75
2023/12/15 10:20:27;;;;;;;60.72;19.08;;;9.40;97.20;;;;;;9177344;19;20018;-74
2023/12/15 10:23:34;;;;;;;51.85;15.70;;;9.40;97.50;;;;;;9180699;19;20018;-73
2023/12/15 10:26:42;;;;;;;63.17;17.48;;;9.50;97.00;;;;;;9177104;19;20010;-75
2023/12/15 10:29:53;;;;;;;50.78;17.67;;;9.50;96.50;;;;;;9176109;19;20018;-75
2023/12/15 10:33:02;;;;;;;46.03;17.77;;;;;;;;;;9177718;19;20014;-75
2023/12/15 10:36:14;;;;;;;50.45;16.48;;;9.40;97.70;;;;;;9178871;19;20018;-75
2023/12/15 10:39:26;;;;;;;48.90;16.17;;;9.60;97.20;;;;;;9177598;19;20093;-73
2023/12/15 10:42:35;;;;;;;48.03;15.80;;;9.70;94.50;;;;;;9179093;19;20036;-76
2023/12/15 10:45:49;;;;;;;49.28;14.40;;;9.70;95.40;;;;;;9179188;19;20010;-77
2023/12/15 10:49:01;;;;;;;53.33;15.57;;;9.60;91.20;;;;;;9177869;19;20048;-78
2023/12/15 10:52:21;;;;;;;47.45;13.77;;;9.60;91.40;;;;;;9178808;19;20041;-78
2023/12/15 10:55:30;;;;;;;46.67;15.10;;;9.70;91.40;;;;;;9178796;19;20022;-78
2023/12/15 10:58:44;;;;;;;45.90;14.85;;;9.70;91.40;;;;;;9178032;19;20017;-78
2023/12/15 11:01:53;;;;;;;44.53;15.52;;;9.80;91.50;;;;;;9178926;19;20018;-78
2023/12/15 11:05:05;;;;;;;50.88;14.13;;;9.80;91.40;;;;;;9178182;19;20022;-77
2023/12/15 11:08:19;;;;;;;44.97;12.30;;;9.90;91.40;;;;;;9171999;19;20052;-76
2023/12/15 11:11:35;;;;;;;54.42;13.25;;;9.90;91.40;;;;;;9176098;19;20014;-80
2023/12/15 11:14:53;;;;;;;51.38;11.73;;;10.00;91.40;;;;;;9174831;19;20014;-77
2023/12/15 11:18:06;;;;;;;35.90;10.30;;;10.00;91.40;;;;;;9175475;19;20022;-76
2023/12/15 11:21:17;;;;;;;53.87;13.03;;;10.10;91.50;;;;;;9176033;19;20842;-73
2023/12/15 11:24:27;;;;;;;39.65;11.00;;;10.10;91.40;;;;;;9169083;19;20015;-77
2023/12/15 11:27:34;;;;;;;44.72;9.40;;;10.10;91.40;;;;;;9174121;19;20031;-77
2023/12/15 11:30:48;;;;;;;34.05;9.68;;;10.20;91.40;;;;;;9177958;19;20033;-77
2023/12/15 11:34:04;;;;;;;45.53;9.00;;;10.20;91.40;;;;;;9173511;19;20090;-75
2023/12/15 11:37:14;;;;;;;35.40;9.95;;;10.10;91.50;;;;;;9177447;19;20444;-77
2023/12/15 11:40:39;;;;;;;27.00;8.20;;;10.20;91.50;;;;;;9175649;19;20022;-77
2023/12/15 11:43:47;;;;;;;43.85;9.05;;;10.30;91.50;;;;;;9176580;19;20011;-76
2023/12/15 11:46:57;;;;;;;28.33;7.30;;;10.40;92.00;;;;;;9174778;19;20612;-78
2023/12/15 11:50:09;;;;;;;45.97;7.30;;;9.90;93.80;;;;;;9176533;19;20022;-77
2023/12/15 11:53:18;;;;;;;29.27;7.35;;;10.40;91.40;;;;;;9169358;19;20023;-77
2023/12/15 11:56:27;;;;;;;35.78;7.30;;;10.40;91.40;;;;;;9174522;19;20022;-76
2023/12/15 11:59:38;;;;;;;38.10;9.30;;;10.40;91.40;;;;;;9174177;19;20019;-77
2023/12/15 12:02:48;;;;;;;33.03;6.78;;;10.50;91.40;;;;;;9170167;19;20026;-77
2023/12/15 12:06:05;;;;;;;37.15;6.57;;;10.50;91.40;;;;;;9172912;19;20360;-76
2023/12/15 12:09:24;;;;;;;33.05;6.85;;;10.60;91.70;;;;;;9172199;19;20417;-78
2023/12/15 12:12:30;;;;;;;36.30;7.18;;;10.60;91.50;;;;;;9175130;19;20029;-74
2023/12/15 12:15:53;;;;;;;36.80;7.18;;;10.60;91.40;;;;;;9174835;19;20839;-77
2023/12/15 12:18:59;;;;;;;28.75;6.50;;;10.60;91.60;;;;;;9176462;19;20111;-76
2023/12/15 12:22:19;;;;;;;32.65;6.13;;;10.70;91.40;;;;;;9173795;19;20018;-77
2023/12/15 12:25:26;;;;;;;39.42;6.13;;;10.70;91.40;;;;;;9174794;19;20037;-76
2023/12/15 12:28:46;;;;;;;30.55;6.32;;;10.70;91.30;;;;;;9175032;19;20019;-77
2023/12/15 12:31:54;;;;;;;33.47;5.05;;;10.70;91.50;;;;;;9172907;19;20488;-77
2023/12/15 12:35:06;;;;;;;30.95;5.70;;;10.80;91.60;;;;;;9173631;19;20022;-77
2023/12/15 12:38:14;;;;;;;28.50;6.03;;;10.80;91.80;;;;;;9175206;19;20015;-77
2023/12/15 12:41:25;;;;;;;31.70;6.60;;;10.80;91.20;;;;;;9174536;19;20023;-75
2023/12/15 12:44:34;;;;;;;41.53;5.60;;;10.80;91.20;;;;;;9179462;19;20047;-77
2023/12/15 12:47:47;;;;;;;24.08;5.30;;;10.80;91.20;;;;;;9179566;19;20019;-76
2023/12/15 12:50:54;;;;;;;27.65;5.38;;;11.00;92.60;;;;;;9182038;19;20011;-76
2023/12/15 12:54:05;;;;;;;22.00;5.63;;;11.00;92.20;;;;;;9183394;19;20026;-76
2023/12/15 12:57:15;;;;;;;33.72;7.30;;;11.00;92.10;;;;;;9183203;19;20519;-75
2023/12/15 13:00:24;;;;;;;29.70;5.53;;;11.20;94.00;;;;;;9179033;19;20021;-78
2023/12/15 13:03:36;;;;;;;29.02;4.75;;;11.00;92.30;;;;;;9177622;19;20018;-77
2023/12/15 13:06:44;;;;;;;32.58;4.68;;;11.10;92.50;;;;;;9181756;19;20038;-73
2023/12/15 13:09:52;;;;;;;34.72;7.28;;;11.30;92.40;;;;;;9177087;19;20015;-71
2023/12/15 13:13:02;;;;;;;29.80;5.97;;;11.10;91.10;;;;;;9181448;19;20369;-73
2023/12/15 13:16:13;;;;;;;32.15;5.07;;;11.20;92.10;;;;;;9183754;19;20014;-73
2023/12/15 13:19:21;;;;;;;32.30;5.40;;;11.20;93.10;;;;;;9183213;19;20014;-72
2023/12/15 13:22:28;;;;;;;33.63;5.15;;;11.10;91.50;;;;;;9179485;19;20022;-72
2023/12/15 13:25:58;;;;;;;31.83;4.10;;;11.20;91.90;;;;;;9182001;19;20756;-72
2023/12/15 13:29:03;;;;;;;23.65;4.82;;;;;;;;;;9179307;19;20011;-72
2023/12/15 13:32:11;;;;;;;26.20;5.22;;;11.10;90.70;;;;;;9180501;19;20014;-72
2023/12/15 13:35:17;;;;;;;32.88;4.78;;;11.10;90.90;;;;;;9177885;19;20018;-72
2023/12/15 13:38:26;;;;;;;37.22;5.15;;;11.10;90.80;;;;;;9176274;19;20567;-72
2023/12/15 13:41:35;;;;;;;26.25;4.05;;;11.10;90.80;;;;;;9182106;19;20022;-72
2023/12/15 13:44:42;;;;;;;30.55;4.93;;;11.10;90.80;;;;;;9180660;19;20017;-71
2023/12/15 13:47:48;;;;;;;29.45;5.32;;;11.10;90.80;;;;;;9178997;19;20022;-72
2023/12/15 13:50:55;;;;;;;23.25;4.40;;;11.10;90.80;;;;;;9178049;19;20029;-73
2023/12/15 13:54:01;;;;;;;33.63;4.80;;;11.10;90.80;;;;;;9181492;19;20023;-71
2023/12/15 13:57:11;;;;;;;30.10;5.18;;;11.10;90.80;;;;;;9177508;19;20015;-72
2023/12/15 14:00:18;;;;;;;23.30;5.07;;;11.10;90.70;;;;;;9180195;19;20030;-72
2023/12/15 14:03:25;;;;;;;24.42;4.70;;;11.10;90.70;;;;;;9175540;19;20018;-73
2023/12/15 14:06:31;;;;;;;19.65;3.90;;;11.10;90.70;;;;;;9180955;19;20017;-71
2023/12/15 14:09:38;;;;;;;26.40;7.00;;;11.10;90.70;;;;;;9178917;19;20018;-72
2023/12/15 14:12:47;;;;;;;27.35;4.55;;;11.10;90.90;;;;;;9179158;19;20050;-72
2023/12/15 14:15:54;;;;;;;25.50;4.55;;;11.10;90.60;;;;;;9179901;19;20022;-77
2023/12/15 14:19:12;;;;;;;32.45;4.47;;;11.00;90.60;;;;;;9179865;19;20094;-75
2023/12/15 14:22:24;;;;;;;34.95;6.07;;;11.00;90.60;;;;;;9181197;19;20018;-76
2023/12/15 14:25:29;;;;;;;22.05;4.43;;;11.10;90.60;;;;;;9179590;19;20043;-76
2023/12/15 14:28:40;;;;;;;25.92;5.45;;;11.00;90.50;;;;;;9179998;19;20019;-75
2023/12/15 14:31:47;;;;;;;22.60;4.70;;;11.00;90.50;;;;;;9182039;19;20014;-76
2023/12/15 14:34:54;;;;;;;24.98;4.65;;;11.00;90.60;;;;;;9180396;19;20030;-75
2023/12/15 14:38:01;;;;;;;27.35;4.47;;;11.00;90.50;;;;;;9180207;19;20494;-75
2023/12/15 14:41:08;;;;;;;24.27;4.88;;;11.00;90.50;;;;;;9181213;19;20387;-76
2023/12/15 14:44:16;;;;;;;22.75;4.22;;;11.00;90.60;;;;;;9179584;19;20089;-75
2023/12/15 14:47:24;;;;;;;22.42;4.43;;;11.00;90.50;;;;;;9179613;19;20475;-75
2023/12/15 14:50:36;;;;;;;28.63;4.60;;;10.90;90.50;;;;;;9179849;19;20021;-75
2023/12/15 14:53:46;;;;;;;18.98;4.70;;;10.90;90.50;;;;;;9180127;19;20014;-75
2023/12/15 14:56:55;;;;;;;15.23;3.67;;;10.90;90.50;;;;;;9180528;19;20479;-75
2023/12/15 15:00:27;;;;;;;18.88;4.35;;;10.80;90.50;;;;;;9180778;19;20082;-74
2023/12/15 15:03:46;;;;;;;22.05;4.00;;;10.80;90.50;;;;;;9174984;19;20449;-75
2023/12/15 15:07:08;;;;;;;29.80;4.68;;;10.90;91.30;;;;;;9178710;19;20023;-76
2023/12/15 15:10:18;;;;;;;25.33;4.47;;;11.00;92.50;;;;;;9177976;19;20333;-75
2023/12/15 15:13:45;;;;;;;17.23;4.07;;;10.90;93.10;;;;;;9178048;19;20014;-75
2023/12/15 15:16:56;;;;;;;31.13;4.30;;;10.90;93.30;;;;;;9179493;19;20022;-74
2023/12/15 15:20:10;;;;;;;23.98;4.70;;;10.90;91.50;;;;;;9179459;19;20037;-75
2023/12/15 15:23:16;;;;;;;14.65;3.85;;;10.90;92.00;;;;;;9179091;19;20793;-75
2023/12/15 15:26:25;;;;;;;30.70;7.28;;;10.90;92.20;;;;;;9177115;19;20369;-77
2023/12/15 15:29:41;;;;;;;19.98;4.18;;;10.90;94.10;;;;;;9176465;19;20111;-78
2023/12/15 15:32:57;;;;;;;18.42;3.20;;;10.80;94.80;;;;;;9176526;19;20018;-78
2023/12/15 15:36:04;;;;;;;23.80;3.40;;;10.70;94.90;;;;;;9174153;19;20019;-76
2023/12/15 15:39:20;;;;;;;12.63;3.08;;;10.80;93.50;;;;;;9171181;19;20403;-78
2023/12/15 15:42:30;;;;;;;16.52;3.63;;;10.80;92.20;;;;;;9175348;19;20022;-78
2023/12/15 15:45:41;;;;;;;25.20;5.03;;;10.70;92.30;;;;;;9175242;19;20479;-76
2023/12/15 15:48:55;;;;;;;28.55;4.15;;;10.80;92.60;;;;;;9166521;19;20026;-77
2023/12/15 15:52:03;;;;;;;26.45;3.97;;;10.70;93.50;;;;;;9169224;19;20019;-77
2023/12/15 15:55:09;;;;;;;21.55;3.78;;;10.80;92.70;;;;;;9172953;19;20009;-77
2023/12/15 15:58:17;;;;;;;21.38;4.18;;;10.60;92.70;;;;;;9172014;19;20474;-76
2023/12/15 16:01:26;;;;;;;25.58;3.90;;;10.60;94.00;;;;;;9169830;19;20022;-78
2023/12/15 16:04:52;;;;;;;18.60;3.97;;;10.70;95.50;;;;;;9159486;19;20678;-74
2023/12/15 16:07:57;;;;;;;16.45;4.13;;;10.50;93.10;;;;;;9172098;19;20026;-76
2023/12/15 16:11:07;;;;;;;23.88;5.32;;;10.60;92.50;;;;;;9165338;19;20018;-77